sensor_id;sensor_type;location;lat;lon;timestamp;pressure;altitude;pressure_sealevel;temperature;humidity
39177;BME280;24904;52.208;21.192;2023-04-15T00:03:25;99765.31;;;10.61;68.18
39177;BME280;24904;52.208;21.192;2023-04-15T00:08:28;99760.60;;;10.58;68.25
39177;BME280;24904;52.208;21.192;2023-04-15T00:13:31;99764.59;;;10.56;68.26
39177;BME280;24904;52.208;21.192;2023-04-15T00:18:35;99766.69;;;10.54;68.39
39177;BME280;24904;52.208;21.192;2023-04-15T00:23:38;99762.31;;;10.49;68.47
39177;BME280;24904;52.208;21.192;2023-04-15T00:28:42;99757.21;;;10.48;68.70
39177;BME280;24904;52.208;21.192;2023-04-15T00:33:44;99755.09;;;10.44;69.42
39177;BME280;24904;52.208;21.192;2023-04-15T00:38:48;99756.39;;;10.38;69.89
39177;BME280;24904;52.208;21.192;2023-04-15T00:43:51;99754.98;;;10.34;70.02
39177;BME280;24904;52.208;21.192;2023-04-15T00:48:54;99754.59;;;10.31;70.13
39177;BME280;24904;52.208;21.192;2023-04-15T00:53:58;99757.42;;;10.29;70.02
39177;BME280;24904;52.208;21.192;2023-04-15T00:59:01;99752.45;;;10.24;70.14
39177;BME280;24904;52.208;21.192;2023-04-15T01:04:04;99753.31;;;10.23;70.49
39177;BME280;24904;52.208;21.192;2023-04-15T01:09:08;99751.16;;;10.17;71.32
39177;BME280;24904;52.208;21.192;2023-04-15T01:14:11;99743.75;;;10.10;72.03
39177;BME280;24904;52.208;21.192;2023-04-15T01:19:16;99744.85;;;10.03;72.75
39177;BME280;24904;52.208;21.192;2023-04-15T01:24:19;99745.36;;;9.97;73.17
39177;BME280;24904;52.208;21.192;2023-04-15T01:29:24;99747.15;;;9.89;73.13
39177;BME280;24904;52.208;21.192;2023-04-15T01:34:28;99742.28;;;9.86;73.41
39177;BME280;24904;52.208;21.192;2023-04-15T01:39:31;99740.84;;;9.82;73.70
39177;BME280;24904;52.208;21.192;2023-04-15T01:44:34;99742.48;;;9.77;74.16
39177;BME280;24904;52.208;21.192;2023-04-15T01:49:38;99741.21;;;9.72;74.53
39177;BME280;24904;52.208;21.192;2023-04-15T01:54:42;99739.92;;;9.68;74.95
39177;BME280;24904;52.208;21.192;2023-04-15T01:59:45;99741.24;;;9.65;75.28
39177;BME280;24904;52.208;21.192;2023-04-15T02:04:48;99741.16;;;9.63;75.54
39177;BME280;24904;52.208;21.192;2023-04-15T02:09:52;99739.44;;;9.62;75.62
39177;BME280;24904;52.208;21.192;2023-04-15T02:14:55;99735.83;;;9.63;75.65
39177;BME280;24904;52.208;21.192;2023-04-15T02:19:58;99735.52;;;9.63;75.49
39177;BME280;24904;52.208;21.192;2023-04-15T02:25:02;99729.57;;;9.61;75.86
39177;BME280;24904;52.208;21.192;2023-04-15T02:30:08;99731.05;;;9.61;75.81
39177;BME280;24904;52.208;21.192;2023-04-15T02:35:12;99735.98;;;9.62;76.05
39177;BME280;24904;52.208;21.192;2023-04-15T02:40:15;99738.49;;;9.64;76.27
39177;BME280;24904;52.208;21.192;2023-04-15T02:45:18;99734.27;;;9.62;76.48
39177;BME280;24904;52.208;21.192;2023-04-15T02:50:25;99739.89;;;9.59;76.69
39177;BME280;24904;52.208;21.192;2023-04-15T02:55:29;99734.61;;;9.54;77.02
39177;BME280;24904;52.208;21.192;2023-04-15T03:00:32;99732.41;;;9.55;77.13
39177;BME280;24904;52.208;21.192;2023-04-15T03:05:35;99732.49;;;9.53;77.31
39177;BME280;24904;52.208;21.192;2023-04-15T03:10:40;99734.60;;;9.52;77.62
39177;BME280;24904;52.208;21.192;2023-04-15T03:15:44;99734.11;;;9.47;77.67
39177;BME280;24904;52.208;21.192;2023-04-15T03:20:48;99735.52;;;9.47;77.98
39177;BME280;24904;52.208;21.192;2023-04-15T03:25:51;99736.23;;;9.46;77.94
39177;BME280;24904;52.208;21.192;2023-04-15T03:30:58;99737.09;;;9.45;78.10
39177;BME280;24904;52.208;21.192;2023-04-15T03:36:01;99741.23;;;9.46;78.18
39177;BME280;24904;52.208;21.192;2023-04-15T03:41:04;99740.77;;;9.45;78.18
39177;BME280;24904;52.208;21.192;2023-04-15T03:46:07;99743.50;;;9.46;78.34
39177;BME280;24904;52.208;21.192;2023-04-15T03:51:10;99744.05;;;9.46;78.45
39177;BME280;24904;52.208;21.192;2023-04-15T03:56:13;99745.16;;;9.47;78.59
39177;BME280;24904;52.208;21.192;2023-04-15T04:01:17;99749.61;;;9.48;78.70
39177;BME280;24904;52.208;21.192;2023-04-15T04:06:20;99752.27;;;9.45;78.80
39177;BME280;24904;52.208;21.192;2023-04-15T04:11:23;99753.27;;;9.43;79.13
39177;BME280;24904;52.208;21.192;2023-04-15T04:16:27;99753.71;;;9.39;79.24
39177;BME280;24904;52.208;21.192;2023-04-15T04:21:30;99754.80;;;9.38;79.75
39177;BME280;24904;52.208;21.192;2023-04-15T04:26:35;99754.39;;;9.35;80.13
39177;BME280;24904;52.208;21.192;2023-04-15T04:31:38;99754.70;;;9.34;80.44
39177;BME280;24904;52.208;21.192;2023-04-15T04:36:41;99756.50;;;9.33;80.58
39177;BME280;24904;52.208;21.192;2023-04-15T04:41:45;99758.06;;;9.30;80.80
39177;BME280;24904;52.208;21.192;2023-04-15T04:46:48;99751.28;;;9.27;80.98
39177;BME280;24904;52.208;21.192;2023-04-15T04:51:51;99755.97;;;9.24;81.39
39177;BME280;24904;52.208;21.192;2023-04-15T04:56:54;99750.71;;;9.22;81.59
39177;BME280;24904;52.208;21.192;2023-04-15T05:01:57;99752.19;;;9.20;81.75
39177;BME280;24904;52.208;21.192;2023-04-15T05:07:00;99753.20;;;9.18;81.89
39177;BME280;24904;52.208;21.192;2023-04-15T05:12:03;99756.80;;;9.17;82.11
39177;BME280;24904;52.208;21.192;2023-04-15T05:17:07;99756.02;;;9.17;82.31
39177;BME280;24904;52.208;21.192;2023-04-15T05:22:10;99759.92;;;9.17;82.50
39177;BME280;24904;52.208;21.192;2023-04-15T05:27:13;99756.41;;;9.18;82.57
39177;BME280;24904;52.208;21.192;2023-04-15T05:32:17;99754.69;;;9.18;82.77
39177;BME280;24904;52.208;21.192;2023-04-15T05:37:20;99757.80;;;9.16;83.01
39177;BME280;24904;52.208;21.192;2023-04-15T05:42:23;99761.02;;;9.17;83.22
39177;BME280;24904;52.208;21.192;2023-04-15T05:47:26;99766.03;;;9.18;83.25
39177;BME280;24904;52.208;21.192;2023-04-15T05:52:29;99765.02;;;9.17;83.42
39177;BME280;24904;52.208;21.192;2023-04-15T05:57:32;99769.30;;;9.16;83.43
39177;BME280;24904;52.208;21.192;2023-04-15T06:02:35;99771.27;;;9.15;83.43
39177;BME280;24904;52.208;21.192;2023-04-15T06:07:39;99768.59;;;9.15;83.77
39177;BME280;24904;52.208;21.192;2023-04-15T06:12:42;99766.73;;;9.18;83.99
39177;BME280;24904;52.208;21.192;2023-04-15T06:17:45;99774.58;;;9.20;83.96
39177;BME280;24904;52.208;21.192;2023-04-15T06:22:48;99780.44;;;9.19;84.03
39177;BME280;24904;52.208;21.192;2023-04-15T06:27:51;99784.81;;;9.17;84.12
39177;BME280;24904;52.208;21.192;2023-04-15T06:32:54;99780.98;;;9.17;84.28
39177;BME280;24904;52.208;21.192;2023-04-15T06:37:57;99785.05;;;9.18;84.06
39177;BME280;24904;52.208;21.192;2023-04-15T06:43:00;99788.27;;;9.19;84.33
39177;BME280;24904;52.208;21.192;2023-04-15T06:48:04;99788.02;;;9.18;84.44
39177;BME280;24904;52.208;21.192;2023-04-15T06:53:07;99793.18;;;9.17;84.38
39177;BME280;24904;52.208;21.192;2023-04-15T06:58:10;99800.29;;;9.15;84.58
39177;BME280;24904;52.208;21.192;2023-04-15T07:03:13;99800.87;;;9.12;84.59
39177;BME280;24904;52.208;21.192;2023-04-15T07:08:17;99804.70;;;9.09;84.96
39177;BME280;24904;52.208;21.192;2023-04-15T07:13:21;99809.33;;;9.12;85.16
39177;BME280;24904;52.208;21.192;2023-04-15T07:18:24;99812.61;;;9.13;85.15
39177;BME280;24904;52.208;21.192;2023-04-15T07:23:27;99812.38;;;9.11;85.15
39177;BME280;24904;52.208;21.192;2023-04-15T07:28:30;99813.08;;;9.12;85.03
39177;BME280;24904;52.208;21.192;2023-04-15T07:33:33;99816.14;;;9.12;85.48
39177;BME280;24904;52.208;21.192;2023-04-15T07:38:37;99817.39;;;9.13;85.35
39177;BME280;24904;52.208;21.192;2023-04-15T07:43:41;99811.20;;;9.13;85.36
39177;BME280;24904;52.208;21.192;2023-04-15T07:48:44;99811.92;;;9.13;85.60
39177;BME280;24904;52.208;21.192;2023-04-15T07:53:48;99810.41;;;9.17;85.86
39177;BME280;24904;52.208;21.192;2023-04-15T07:58:51;99809.16;;;9.21;85.74
39177;BME280;24904;52.208;21.192;2023-04-15T08:03:55;99811.98;;;9.21;85.65
39177;BME280;24904;52.208;21.192;2023-04-15T08:08:58;99809.63;;;9.19;85.67
39177;BME280;24904;52.208;21.192;2023-04-15T08:14:01;99810.26;;;9.20;85.92
39177;BME280;24904;52.208;21.192;2023-04-15T08:19:04;99810.58;;;9.22;86.00
39177;BME280;24904;52.208;21.192;2023-04-15T08:24:07;99812.19;;;9.28;86.25
39177;BME280;24904;52.208;21.192;2023-04-15T08:29:10;99805.89;;;9.32;86.26
39177;BME280;24904;52.208;21.192;2023-04-15T08:34:13;99807.79;;;9.36;86.44
39177;BME280;24904;52.208;21.192;2023-04-15T08:39:16;99810.08;;;9.40;86.46
39177;BME280;24904;52.208;21.192;2023-04-15T08:44:20;99813.72;;;9.43;86.64
39177;BME280;24904;52.208;21.192;2023-04-15T08:49:26;99814.30;;;9.48;86.62
39177;BME280;24904;52.208;21.192;2023-04-15T08:54:30;99818.30;;;9.51;86.57
39177;BME280;24904;52.208;21.192;2023-04-15T08:59:34;99816.13;;;9.54;86.74
39177;BME280;24904;52.208;21.192;2023-04-15T09:04:37;99819.86;;;9.60;86.76
39177;BME280;24904;52.208;21.192;2023-04-15T09:09:40;99820.73;;;9.65;86.99
39177;BME280;24904;52.208;21.192;2023-04-15T09:14:45;99821.46;;;9.69;86.97
39177;BME280;24904;52.208;21.192;2023-04-15T09:19:49;99827.27;;;9.70;86.84
39177;BME280;24904;52.208;21.192;2023-04-15T09:25:27;99829.60;;;9.69;86.76
39177;BME280;24904;52.208;21.192;2023-04-15T09:30:30;99823.02;;;9.66;86.66
39177;BME280;24904;52.208;21.192;2023-04-15T09:35:33;99827.33;;;9.68;86.84
39177;BME280;24904;52.208;21.192;2023-04-15T09:40:39;99828.05;;;9.71;86.95
39177;BME280;24904;52.208;21.192;2023-04-15T09:45:48;99828.38;;;9.72;87.00
39177;BME280;24904;52.208;21.192;2023-04-15T09:50:51;99833.02;;;9.77;87.26
39177;BME280;24904;52.208;21.192;2023-04-15T09:55:56;99835.09;;;9.81;87.38
39177;BME280;24904;52.208;21.192;2023-04-15T10:01:02;99834.64;;;9.87;87.51
39177;BME280;24904;52.208;21.192;2023-04-15T10:06:05;99841.80;;;9.93;87.64
39177;BME280;24904;52.208;21.192;2023-04-15T10:11:09;99840.25;;;9.95;87.55
39177;BME280;24904;52.208;21.192;2023-04-15T10:16:14;99841.98;;;9.96;87.32
39177;BME280;24904;52.208;21.192;2023-04-15T10:21:18;99840.95;;;9.96;87.45
39177;BME280;24904;52.208;21.192;2023-04-15T10:26:24;99838.76;;;9.95;87.40
39177;BME280;24904;52.208;21.192;2023-04-15T10:31:28;99840.02;;;9.97;87.42
39177;BME280;24904;52.208;21.192;2023-04-15T10:36:32;99839.33;;;9.99;87.58
39177;BME280;24904;52.208;21.192;2023-04-15T10:41:35;99842.10;;;10.03;87.75
39177;BME280;24904;52.208;21.192;2023-04-15T10:46:40;99838.59;;;10.07;87.74
39177;BME280;24904;52.208;21.192;2023-04-15T10:51:45;99838.59;;;10.09;87.74
39177;BME280;24904;52.208;21.192;2023-04-15T10:57:07;99838.86;;;10.16;88.05
39177;BME280;24904;52.208;21.192;2023-04-15T11:02:13;99841.25;;;10.21;88.01
39177;BME280;24904;52.208;21.192;2023-04-15T11:07:33;99837.89;;;10.25;88.02
39177;BME280;24904;52.208;21.192;2023-04-15T11:12:36;99839.55;;;10.25;87.82
39177;BME280;24904;52.208;21.192;2023-04-15T11:17:39;99843.55;;;10.25;87.91
39177;BME280;24904;52.208;21.192;2023-04-15T11:22:48;99842.90;;;10.23;87.46
39177;BME280;24904;52.208;21.192;2023-04-15T11:27:52;99841.77;;;10.20;87.55
39177;BME280;24904;52.208;21.192;2023-04-15T11:32:58;99841.38;;;10.17;87.34
39177;BME280;24904;52.208;21.192;2023-04-15T11:38:03;99846.14;;;10.13;87.35
39177;BME280;24904;52.208;21.192;2023-04-15T11:43:09;99851.52;;;10.10;87.43
39177;BME280;24904;52.208;21.192;2023-04-15T11:48:13;99862.34;;;10.10;87.73
39177;BME280;24904;52.208;21.192;2023-04-15T11:53:16;99867.38;;;10.14;88.20
39177;BME280;24904;52.208;21.192;2023-04-15T11:58:20;99872.13;;;10.20;88.24
39177;BME280;24904;52.208;21.192;2023-04-15T12:03:26;99873.59;;;10.27;88.24
39177;BME280;24904;52.208;21.192;2023-04-15T12:14:06;99886.55;;;10.35;88.38
39177;BME280;24904;52.208;21.192;2023-04-15T12:19:11;99896.38;;;10.42;88.50
39177;BME280;24904;52.208;21.192;2023-04-15T12:24:15;99904.33;;;10.48;88.02
39177;BME280;24904;52.208;21.192;2023-04-15T12:29:25;99903.39;;;10.47;87.29
39177;BME280;24904;52.208;21.192;2023-04-15T12:34:31;99910.29;;;10.47;87.36
39177;BME280;24904;52.208;21.192;2023-04-15T12:39:36;99914.37;;;10.49;87.49
39177;BME280;24904;52.208;21.192;2023-04-15T12:44:40;99917.05;;;10.50;87.11
39177;BME280;24904;52.208;21.192;2023-04-15T12:49:43;99915.48;;;10.53;87.40
39177;BME280;24904;52.208;21.192;2023-04-15T12:54:46;99921.75;;;10.52;87.34
39177;BME280;24904;52.208;21.192;2023-04-15T12:59:49;99925.59;;;10.53;87.00
39177;BME280;24904;52.208;21.192;2023-04-15T13:04:53;99927.95;;;10.52;86.58
39177;BME280;24904;52.208;21.192;2023-04-15T13:09:56;99936.17;;;10.50;86.49
39177;BME280;24904;52.208;21.192;2023-04-15T13:14:59;99944.02;;;10.48;86.48
39177;BME280;24904;52.208;21.192;2023-04-15T13:20:02;99952.72;;;10.48;86.52
39177;BME280;24904;52.208;21.192;2023-04-15T13:25:07;99951.46;;;10.47;86.06
39177;BME280;24904;52.208;21.192;2023-04-15T13:30:11;99951.63;;;10.50;86.09
39177;BME280;24904;52.208;21.192;2023-04-15T13:35:14;99956.06;;;10.60;86.17
39177;BME280;24904;52.208;21.192;2023-04-15T13:40:18;99962.44;;;10.64;85.58
39177;BME280;24904;52.208;21.192;2023-04-15T13:45:22;99964.64;;;10.67;85.87
39177;BME280;24904;52.208;21.192;2023-04-15T13:50:25;99965.42;;;10.66;85.27
39177;BME280;24904;52.208;21.192;2023-04-15T13:55:28;99966.05;;;10.66;85.42
39177;BME280;24904;52.208;21.192;2023-04-15T14:00:31;99963.27;;;10.70;85.27
39177;BME280;24904;52.208;21.192;2023-04-15T14:05:34;99961.77;;;10.75;85.25
39177;BME280;24904;52.208;21.192;2023-04-15T14:10:37;99960.63;;;10.82;85.19
39177;BME280;24904;52.208;21.192;2023-04-15T14:15:41;99970.45;;;10.87;84.36
39177;BME280;24904;52.208;21.192;2023-04-15T14:20:44;99977.44;;;10.90;84.29
39177;BME280;24904;52.208;21.192;2023-04-15T14:25:47;99973.44;;;10.87;83.82
39177;BME280;24904;52.208;21.192;2023-04-15T14:30:50;99977.73;;;10.84;83.44
39177;BME280;24904;52.208;21.192;2023-04-15T14:35:53;99976.46;;;10.81;83.27
39177;BME280;24904;52.208;21.192;2023-04-15T14:40:56;99977.01;;;10.79;83.22
39177;BME280;24904;52.208;21.192;2023-04-15T14:45:59;99979.67;;;10.78;82.96
39177;BME280;24904;52.208;21.192;2023-04-15T14:51:03;99989.48;;;10.82;82.91
39177;BME280;24904;52.208;21.192;2023-04-15T14:56:07;99994.46;;;10.86;82.56
39177;BME280;24904;52.208;21.192;2023-04-15T15:01:10;100003.34;;;10.91;82.53
39177;BME280;24904;52.208;21.192;2023-04-15T15:06:13;100009.15;;;10.93;82.36
39177;BME280;24904;52.208;21.192;2023-04-15T15:11:16;100024.06;;;10.92;81.77
39177;BME280;24904;52.208;21.192;2023-04-15T15:22:54;100028.00;;;10.94;80.92
39177;BME280;24904;52.208;21.192;2023-04-15T15:27:57;100028.21;;;10.87;80.62
39177;BME280;24904;52.208;21.192;2023-04-15T15:33:01;100033.52;;;10.84;80.51
39177;BME280;24904;52.208;21.192;2023-04-15T15:38:04;100031.78;;;10.82;80.48
39177;BME280;24904;52.208;21.192;2023-04-15T15:43:07;100030.28;;;10.78;80.12
39177;BME280;24904;52.208;21.192;2023-04-15T15:48:10;100024.70;;;10.76;80.12
39177;BME280;24904;52.208;21.192;2023-04-15T15:53:13;100025.42;;;10.80;80.09
39177;BME280;24904;52.208;21.192;2023-04-15T15:58:21;100022.63;;;10.85;79.92
39177;BME280;24904;52.208;21.192;2023-04-15T16:03:24;100029.71;;;10.89;79.72
39177;BME280;24904;52.208;21.192;2023-04-15T16:08:27;100037.17;;;10.92;79.35
39177;BME280;24904;52.208;21.192;2023-04-15T16:13:30;100040.52;;;10.85;79.01
39177;BME280;24904;52.208;21.192;2023-04-15T16:18:33;100047.08;;;10.82;79.38
39177;BME280;24904;52.208;21.192;2023-04-15T16:23:37;100060.41;;;10.79;79.20
39177;BME280;24904;52.208;21.192;2023-04-15T16:28:40;100068.41;;;10.75;79.21
39177;BME280;24904;52.208;21.192;2023-04-15T16:33:43;100074.85;;;10.77;79.12
39177;BME280;24904;52.208;21.192;2023-04-15T16:38:46;100081.95;;;10.70;78.88
39177;BME280;24904;52.208;21.192;2023-04-15T16:43:49;100090.30;;;10.66;79.01
39177;BME280;24904;52.208;21.192;2023-04-15T16:48:52;100094.29;;;10.61;79.06
39177;BME280;24904;52.208;21.192;2023-04-15T16:53:55;100104.13;;;10.55;78.99
39177;BME280;24904;52.208;21.192;2023-04-15T16:58:58;100111.55;;;10.49;79.12
39177;BME280;24904;52.208;21.192;2023-04-15T17:04:01;100115.52;;;10.47;79.18
39177;BME280;24904;52.208;21.192;2023-04-15T17:09:04;100126.71;;;10.44;79.12
39177;BME280;24904;52.208;21.192;2023-04-15T17:14:07;100132.92;;;10.37;79.02
39177;BME280;24904;52.208;21.192;2023-04-15T17:19:10;100133.38;;;10.33;79.01
39177;BME280;24904;52.208;21.192;2023-04-15T17:24:13;100132.66;;;10.30;79.10
39177;BME280;24904;52.208;21.192;2023-04-15T17:29:17;100135.27;;;10.27;78.94
39177;BME280;24904;52.208;21.192;2023-04-15T17:34:20;100131.98;;;10.18;78.94
39177;BME280;24904;52.208;21.192;2023-04-15T17:39:23;100136.41;;;10.15;78.99
39177;BME280;24904;52.208;21.192;2023-04-15T17:44:26;100144.98;;;10.11;78.79
39177;BME280;24904;52.208;21.192;2023-04-15T17:49:29;100152.79;;;10.07;78.69
39177;BME280;24904;52.208;21.192;2023-04-15T17:54:32;100169.92;;;10.03;78.62
39177;BME280;24904;52.208;21.192;2023-04-15T17:59:35;100187.84;;;10.00;78.72
39177;BME280;24904;52.208;21.192;2023-04-15T18:04:38;100195.63;;;9.98;78.76
39177;BME280;24904;52.208;21.192;2023-04-15T18:09:41;100206.80;;;9.94;78.86
39177;BME280;24904;52.208;21.192;2023-04-15T18:14:45;100221.29;;;9.92;78.81
39177;BME280;24904;52.208;21.192;2023-04-15T18:19:48;100224.40;;;9.90;78.88
39177;BME280;24904;52.208;21.192;2023-04-15T18:24:52;100233.34;;;9.90;78.83
39177;BME280;24904;52.208;21.192;2023-04-15T18:29:56;100240.84;;;9.89;78.84
39177;BME280;24904;52.208;21.192;2023-04-15T18:34:59;100249.53;;;9.88;78.84
39177;BME280;24904;52.208;21.192;2023-04-15T18:40:02;100256.89;;;9.87;78.89
39177;BME280;24904;52.208;21.192;2023-04-15T18:45:07;100264.67;;;9.89;78.71
39177;BME280;24904;52.208;21.192;2023-04-15T18:50:10;100270.62;;;9.89;78.66
39177;BME280;24904;52.208;21.192;2023-04-15T18:55:13;100269.36;;;9.88;78.46
39177;BME280;24904;52.208;21.192;2023-04-15T19:00:17;100271.11;;;9.85;78.28
39177;BME280;24904;52.208;21.192;2023-04-15T19:05:20;100275.70;;;9.83;78.45
39177;BME280;24904;52.208;21.192;2023-04-15T19:10:23;100274.74;;;9.81;78.53
39177;BME280;24904;52.208;21.192;2023-04-15T19:15:26;100280.36;;;9.80;78.45
39177;BME280;24904;52.208;21.192;2023-04-15T19:20:30;100283.84;;;9.75;78.39
39177;BME280;24904;52.208;21.192;2023-04-15T19:25:33;100283.02;;;9.72;78.37
39177;BME280;24904;52.208;21.192;2023-04-15T19:30:36;100286.41;;;9.68;78.37
39177;BME280;24904;52.208;21.192;2023-04-15T19:35:40;100291.05;;;9.63;78.31
39177;BME280;24904;52.208;21.192;2023-04-15T19:40:43;100297.08;;;9.57;78.49
39177;BME280;24904;52.208;21.192;2023-04-15T19:45:46;100301.41;;;9.54;78.64
39177;BME280;24904;52.208;21.192;2023-04-15T19:50:53;100301.77;;;9.52;78.49
39177;BME280;24904;52.208;21.192;2023-04-15T19:55:56;100311.66;;;9.48;78.64
39177;BME280;24904;52.208;21.192;2023-04-15T20:00:59;100318.95;;;9.48;78.68
39177;BME280;24904;52.208;21.192;2023-04-15T20:06:02;100319.02;;;9.48;78.68
39177;BME280;24904;52.208;21.192;2023-04-15T20:11:07;100320.52;;;9.49;78.75
39177;BME280;24904;52.208;21.192;2023-04-15T20:16:10;100325.11;;;9.46;78.53
39177;BME280;24904;52.208;21.192;2023-04-15T20:21:14;100322.09;;;9.44;78.64
39177;BME280;24904;52.208;21.192;2023-04-15T20:26:17;100320.21;;;9.39;78.60
39177;BME280;24904;52.208;21.192;2023-04-15T20:31:21;100321.36;;;9.36;78.84
39177;BME280;24904;52.208;21.192;2023-04-15T20:36:24;100322.54;;;9.37;78.76
39177;BME280;24904;52.208;21.192;2023-04-15T20:41:27;100325.11;;;9.37;78.80
39177;BME280;24904;52.208;21.192;2023-04-15T20:46:30;100325.59;;;9.36;78.80
39177;BME280;24904;52.208;21.192;2023-04-15T20:51:33;100322.27;;;9.36;78.82
39177;BME280;24904;52.208;21.192;2023-04-15T20:56:38;100331.13;;;9.36;79.05
39177;BME280;24904;52.208;21.192;2023-04-15T21:01:42;100327.21;;;9.35;78.97
39177;BME280;24904;52.208;21.192;2023-04-15T21:06:45;100326.19;;;9.31;78.83
39177;BME280;24904;52.208;21.192;2023-04-15T21:11:49;100326.84;;;9.27;79.12
39177;BME280;24904;52.208;21.192;2023-04-15T21:16:52;100331.01;;;9.23;79.25
39177;BME280;24904;52.208;21.192;2023-04-15T21:21:55;100337.73;;;9.21;79.27
39177;BME280;24904;52.208;21.192;2023-04-15T21:26:58;100339.34;;;9.19;79.28
39177;BME280;24904;52.208;21.192;2023-04-15T21:32:02;100340.79;;;9.17;79.36
39177;BME280;24904;52.208;21.192;2023-04-15T21:37:05;100338.94;;;9.14;79.43
39177;BME280;24904;52.208;21.192;2023-04-15T21:42:09;100340.58;;;9.10;79.40
39177;BME280;24904;52.208;21.192;2023-04-15T21:47:12;100340.88;;;9.08;79.50
39177;BME280;24904;52.208;21.192;2023-04-15T21:52:15;100346.77;;;9.05;79.68
39177;BME280;24904;52.208;21.192;2023-04-15T21:57:19;100350.77;;;9.05;79.70
39177;BME280;24904;52.208;21.192;2023-04-15T22:02:22;100353.08;;;9.03;79.83
39177;BME280;24904;52.208;21.192;2023-04-15T22:07:27;100354.14;;;9.02;79.80
39177;BME280;24904;52.208;21.192;2023-04-15T22:12:32;100358.98;;;8.97;79.66
39177;BME280;24904;52.208;21.192;2023-04-15T22:17:36;100365.71;;;8.92;80.04
39177;BME280;24904;52.208;21.192;2023-04-15T22:22:40;100370.30;;;8.90;80.14
39177;BME280;24904;52.208;21.192;2023-04-15T22:27:45;100372.02;;;8.90;80.18
39177;BME280;24904;52.208;21.192;2023-04-15T22:32:49;100382.73;;;8.89;80.07
39177;BME280;24904;52.208;21.192;2023-04-15T22:37:53;100387.19;;;8.89;80.41
39177;BME280;24904;52.208;21.192;2023-04-15T22:42:57;100387.29;;;8.87;80.40
39177;BME280;24904;52.208;21.192;2023-04-15T22:48:01;100388.64;;;8.84;80.46
39177;BME280;24904;52.208;21.192;2023-04-15T22:53:07;100390.10;;;8.83;80.50
39177;BME280;24904;52.208;21.192;2023-04-15T23:05:14;100392.35;;;8.86;80.84
39177;BME280;24904;52.208;21.192;2023-04-15T23:10:19;100393.18;;;8.80;80.76
39177;BME280;24904;52.208;21.192;2023-04-15T23:15:24;100393.74;;;8.76;81.08
39177;BME280;24904;52.208;21.192;2023-04-15T23:20:29;100397.58;;;8.73;81.29
39177;BME280;24904;52.208;21.192;2023-04-15T23:25:34;100390.66;;;8.67;81.43
39177;BME280;24904;52.208;21.192;2023-04-15T23:30:39;100394.66;;;8.58;81.66
39177;BME280;24904;52.208;21.192;2023-04-15T23:35:44;100402.19;;;8.56;81.92
39177;BME280;24904;52.208;21.192;2023-04-15T23:40:51;100399.73;;;8.54;81.86
39177;BME280;24904;52.208;21.192;2023-04-15T23:45:56;100410.27;;;8.53;82.18
39177;BME280;24904;52.208;21.192;2023-04-15T23:57:43;100410.34;;;8.53;82.26
